sensor_id;sensor_type;location;lat;lon;timestamp;pressure;altitude;pressure_sealevel;temperature;humidity
8697;BME280;4385;48.848;8.924;2022-07-03T00:01:11;97594.78;;;22.38;100.00
8697;BME280;4385;48.848;8.924;2022-07-03T00:03:37;97600.81;;;22.37;100.00
8697;BME280;4385;48.848;8.924;2022-07-03T00:06:02;97596.44;;;22.39;100.00
8697;BME280;4385;48.848;8.924;2022-07-03T00:08:27;97610.19;;;22.38;100.00
8697;BME280;4385;48.848;8.924;2022-07-03T00:10:53;97600.81;;;22.37;100.00
8697;BME280;4385;48.848;8.924;2022-07-03T00:13:18;97599.91;;;22.38;100.00
8697;BME280;4385;48.848;8.924;2022-07-03T00:15:43;97600.81;;;22.37;100.00
8697;BME280;4385;48.848;8.924;2022-07-03T00:18:09;97608.53;;;22.37;100.00
8697;BME280;4385;48.848;8.924;2022-07-03T00:20:38;97606.81;;;22.36;100.00
8697;BME280;4385;48.848;8.924;2022-07-03T00:23:09;97609.41;;;22.36;100.00
8697;BME280;4385;48.848;8.924;2022-07-03T00:25:35;97598.31;;;22.35;100.00
8697;BME280;4385;48.848;8.924;2022-07-03T00:28:01;97596.56;;;22.36;100.00
8697;BME280;4385;48.848;8.924;2022-07-03T00:30:27;97595.75;;;22.35;100.00
8697;BME280;4385;48.848;8.924;2022-07-03T00:32:53;97601.75;;;22.34;100.00
8697;BME280;4385;48.848;8.924;2022-07-03T00:35:19;97606.88;;;22.34;100.00
8697;BME280;4385;48.848;8.924;2022-07-03T00:37:45;97606.06;;;22.34;100.00
8697;BME280;4385;48.848;8.924;2022-07-03T00:40:11;97604.25;;;22.36;100.00
8697;BME280;4385;48.848;8.924;2022-07-03T00:42:38;97597.34;;;22.38;100.00
8697;BME280;4385;48.848;8.924;2022-07-03T00:45:06;97604.25;;;22.36;100.00
8697;BME280;4385;48.848;8.924;2022-07-03T00:47:35;97606.88;;;22.34;100.00
8697;BME280;4385;48.848;8.924;2022-07-03T00:50:06;97606.06;;;22.34;100.00
8697;BME280;4385;48.848;8.924;2022-07-03T00:52:32;97603.50;;;22.34;100.00
8697;BME280;4385;48.848;8.924;2022-07-03T00:54:59;97610.34;;;22.33;100.00
8697;BME280;4385;48.848;8.924;2022-07-03T00:57:28;97603.28;;;22.40;100.00
8697;BME280;4385;48.848;8.924;2022-07-03T00:59:53;97608.41;;;22.40;100.00
8697;BME280;4385;48.848;8.924;2022-07-03T01:04:56;97609.50;;;22.33;100.00
8697;BME280;4385;48.848;8.924;2022-07-03T01:07:52;97606.19;;;22.30;100.00
8697;BME280;4385;48.848;8.924;2022-07-03T01:10:36;97598.03;;;22.43;100.00
8697;BME280;4385;48.848;8.924;2022-07-03T01:16:04;97604.25;;;22.36;100.00
8697;BME280;4385;48.848;8.924;2022-07-03T01:18:48;97603.56;;;22.32;100.00
8697;BME280;4385;48.848;8.924;2022-07-03T01:22:03;97604.44;;;22.31;100.00
8697;BME280;4385;48.848;8.924;2022-07-03T01:24:17;97607.91;;;22.30;100.00
8697;BME280;4385;48.848;8.924;2022-07-03T01:26:55;97605.34;;;22.30;100.00
8697;BME280;4385;48.848;8.924;2022-07-03T01:29:28;97604.47;;;22.29;100.00
8697;BME280;4385;48.848;8.924;2022-07-03T01:31:56;97601.16;;;22.27;100.00
8697;BME280;4385;48.848;8.924;2022-07-03T01:34:25;97597.75;;;22.27;100.00
8697;BME280;4385;48.848;8.924;2022-07-03T01:36:54;97599.47;;;22.26;100.00
8697;BME280;4385;48.848;8.924;2022-07-03T01:39:26;97604.59;;;22.26;100.00
8697;BME280;4385;48.848;8.924;2022-07-03T01:41:53;97611.47;;;22.26;100.00
8697;BME280;4385;48.848;8.924;2022-07-03T01:44:21;97601.22;;;22.26;100.00
8697;BME280;4385;48.848;8.924;2022-07-03T01:46:51;97596.38;;;22.40;100.00
8697;BME280;4385;48.848;8.924;2022-07-03T01:49:18;97599.69;;;22.44;100.00
8697;BME280;4385;48.848;8.924;2022-07-03T01:51:45;97592.94;;;22.41;100.00
8697;BME280;4385;48.848;8.924;2022-07-03T01:54:14;97594.00;;;22.36;100.00
8697;BME280;4385;48.848;8.924;2022-07-03T01:56:39;97601.03;;;22.30;100.00
8697;BME280;4385;48.848;8.924;2022-07-03T01:59:05;97591.00;;;22.24;100.00
8697;BME280;4385;48.848;8.924;2022-07-03T02:01:41;97592.78;;;22.22;100.00
8697;BME280;4385;48.848;8.924;2022-07-03T02:07:03;97582.63;;;22.19;100.00
8697;BME280;4385;48.848;8.924;2022-07-03T02:10:06;97575.66;;;22.23;100.00
8697;BME280;4385;48.848;8.924;2022-07-03T02:12:38;97585.25;;;22.17;100.00
8697;BME280;4385;48.848;8.924;2022-07-03T02:15:07;97575.72;;;22.21;100.00
8697;BME280;4385;48.848;8.924;2022-07-03T02:17:37;97576.75;;;22.15;100.00
8697;BME280;4385;48.848;8.924;2022-07-03T02:20:06;97575.72;;;22.21;100.00
8697;BME280;4385;48.848;8.924;2022-07-03T02:22:38;97575.59;;;22.24;100.00
8697;BME280;4385;48.848;8.924;2022-07-03T02:25:37;97578.06;;;22.27;100.00
8697;BME280;4385;48.848;8.924;2022-07-03T02:28:12;97580.63;;;22.27;100.00
8697;BME280;4385;48.848;8.924;2022-07-03T02:30:42;97583.19;;;22.27;100.00
8697;BME280;4385;48.848;8.924;2022-07-03T02:33:10;97577.22;;;22.27;100.00
8697;BME280;4385;48.848;8.924;2022-07-03T02:35:36;97578.13;;;22.26;100.00
8697;BME280;4385;48.848;8.924;2022-07-03T02:38:09;97586.84;;;22.20;100.00
8697;BME280;4385;48.848;8.924;2022-07-03T02:40:46;97586.97;;;22.17;100.00
8697;BME280;4385;48.848;8.924;2022-07-03T02:43:23;97590.44;;;22.16;100.00
8697;BME280;4385;48.848;8.924;2022-07-03T02:46:00;97596.41;;;22.16;100.00
8697;BME280;4385;48.848;8.924;2022-07-03T02:48:33;97599.78;;;22.17;100.00
8697;BME280;4385;48.848;8.924;2022-07-03T02:51:04;97594.66;;;22.17;100.00
8697;BME280;4385;48.848;8.924;2022-07-03T02:53:46;97593.91;;;22.15;100.00
8697;BME280;4385;48.848;8.924;2022-07-03T02:56:15;97591.44;;;22.12;100.00
8697;BME280;4385;48.848;8.924;2022-07-03T02:58:44;97591.44;;;22.12;100.00
8697;BME280;4385;48.848;8.924;2022-07-03T03:06:37;97602.63;;;22.09;100.00
8697;BME280;4385;48.848;8.924;2022-07-03T03:09:05;97600.97;;;22.08;100.00
8697;BME280;4385;48.848;8.924;2022-07-03T03:14:05;97603.59;;;22.07;100.00
8697;BME280;4385;48.848;8.924;2022-07-03T03:16:33;97603.59;;;22.07;100.00
8697;BME280;4385;48.848;8.924;2022-07-03T03:18:58;97604.44;;;22.07;100.00
8697;BME280;4385;48.848;8.924;2022-07-03T03:21:26;97607.88;;;22.06;100.00
8697;BME280;4385;48.848;8.924;2022-07-03T03:23:54;97609.56;;;22.07;100.00
8697;BME280;4385;48.848;8.924;2022-07-03T03:26:24;97608.72;;;22.07;100.00
8697;BME280;4385;48.848;8.924;2022-07-03T03:28:50;97608.72;;;22.07;100.00
8697;BME280;4385;48.848;8.924;2022-07-03T03:31:17;97613.00;;;22.06;100.00
8697;BME280;4385;48.848;8.924;2022-07-03T03:33:46;97612.19;;;22.05;100.00
8697;BME280;4385;48.848;8.924;2022-07-03T03:36:14;97615.63;;;22.04;100.00
8697;BME280;4385;48.848;8.924;2022-07-03T03:38:40;97620.75;;;22.04;100.00
8697;BME280;4385;48.848;8.924;2022-07-03T03:41:06;97622.13;;;22.15;100.00
8697;BME280;4385;48.848;8.924;2022-07-03T03:43:32;97623.69;;;22.19;100.00
8697;BME280;4385;48.848;8.924;2022-07-03T03:45:59;97618.53;;;22.19;100.00
8697;BME280;4385;48.848;8.924;2022-07-03T03:48:26;97617.66;;;22.20;100.00
8697;BME280;4385;48.848;8.924;2022-07-03T03:50:51;97627.03;;;22.21;100.00
8697;BME280;4385;48.848;8.924;2022-07-03T03:53:18;97623.63;;;22.21;100.00
8697;BME280;4385;48.848;8.924;2022-07-03T03:56:08;97623.56;;;22.22;100.00
8697;BME280;4385;48.848;8.924;2022-07-03T03:58:35;97623.56;;;22.22;100.00
8697;BME280;4385;48.848;8.924;2022-07-03T04:01:03;97627.84;;;22.22;100.00
8697;BME280;4385;48.848;8.924;2022-07-03T04:03:30;97628.72;;;22.22;100.00
8697;BME280;4385;48.848;8.924;2022-07-03T04:05:56;97633.84;;;22.22;100.00
8697;BME280;4385;48.848;8.924;2022-07-03T04:08:23;97631.28;;;22.22;100.00
8697;BME280;4385;48.848;8.924;2022-07-03T04:10:49;97632.19;;;22.21;100.00
8697;BME280;4385;48.848;8.924;2022-07-03T04:13:15;97637.31;;;22.21;100.00
8697;BME280;4385;48.848;8.924;2022-07-03T04:15:41;97633.03;;;22.20;100.00
8697;BME280;4385;48.848;8.924;2022-07-03T04:18:07;97633.03;;;22.20;100.00
8697;BME280;4385;48.848;8.924;2022-07-03T04:20:32;97634.78;;;22.20;100.00
8697;BME280;4385;48.848;8.924;2022-07-03T04:22:58;97633.94;;;22.19;100.00
8697;BME280;4385;48.848;8.924;2022-07-03T04:25:24;97637.38;;;22.20;100.00
8697;BME280;4385;48.848;8.924;2022-07-03T04:27:49;97635.63;;;22.20;100.00
8697;BME280;4385;48.848;8.924;2022-07-03T04:30:15;97649.56;;;22.13;100.00
8697;BME280;4385;48.848;8.924;2022-07-03T04:32:40;97649.09;;;22.01;100.00
8697;BME280;4385;48.848;8.924;2022-07-03T04:35:06;97652.72;;;21.96;100.00
8697;BME280;4385;48.848;8.924;2022-07-03T04:37:31;97652.72;;;21.96;100.00
8697;BME280;4385;48.848;8.924;2022-07-03T04:39:57;97652.75;;;21.94;100.00
8697;BME280;4385;48.848;8.924;2022-07-03T04:42:22;97646.19;;;22.11;100.00
8697;BME280;4385;48.848;8.924;2022-07-03T04:44:47;97648.66;;;22.14;100.00
8697;BME280;4385;48.848;8.924;2022-07-03T04:47:12;97645.44;;;22.09;100.00
8697;BME280;4385;48.848;8.924;2022-07-03T04:49:39;97646.41;;;22.04;100.00
8697;BME280;4385;48.848;8.924;2022-07-03T04:52:05;97649.13;;;22.00;100.00
8697;BME280;4385;48.848;8.924;2022-07-03T04:54:31;97656.06;;;21.98;100.00
8697;BME280;4385;48.848;8.924;2022-07-03T04:56:56;97658.69;;;21.96;100.00
8697;BME280;4385;48.848;8.924;2022-07-03T04:59:21;97650.19;;;21.94;100.00
8697;BME280;4385;48.848;8.924;2022-07-03T05:01:46;97651.97;;;21.92;100.00
8697;BME280;4385;48.848;8.924;2022-07-03T05:04:15;97650.25;;;21.92;100.00
8697;BME280;4385;48.848;8.924;2022-07-03T05:06:40;97648.81;;;22.09;100.00
8697;BME280;4385;48.848;8.924;2022-07-03T05:09:05;97650.34;;;22.15;100.00
8697;BME280;4385;48.848;8.924;2022-07-03T05:11:31;97655.38;;;22.18;100.00
8697;BME280;4385;48.848;8.924;2022-07-03T05:13:56;97652.75;;;22.20;100.00
8697;BME280;4385;48.848;8.924;2022-07-03T05:16:21;97657.00;;;22.21;100.00
8697;BME280;4385;48.848;8.924;2022-07-03T05:18:47;97655.28;;;22.21;100.00
8697;BME280;4385;48.848;8.924;2022-07-03T05:21:12;97655.22;;;22.23;100.00
8697;BME280;4385;48.848;8.924;2022-07-03T05:23:37;97646.63;;;22.24;100.00
8697;BME280;4385;48.848;8.924;2022-07-03T05:26:03;97650.84;;;22.25;100.00
8697;BME280;4385;48.848;8.924;2022-07-03T05:28:28;97650.03;;;22.24;100.00
8697;BME280;4385;48.848;8.924;2022-07-03T05:30:54;97655.94;;;22.26;100.00
8697;BME280;4385;48.848;8.924;2022-07-03T05:33:19;97657.63;;;22.27;100.00
8697;BME280;4385;48.848;8.924;2022-07-03T05:35:44;97655.88;;;22.28;100.00
8697;BME280;4385;48.848;8.924;2022-07-03T05:38:10;97649.03;;;22.28;100.00
8697;BME280;4385;48.848;8.924;2022-07-03T05:40:35;97656.66;;;22.30;100.00
8697;BME280;4385;48.848;8.924;2022-07-03T05:43:00;97657.50;;;22.30;100.00
8697;BME280;4385;48.848;8.924;2022-07-03T05:45:26;97654.91;;;22.32;100.00
8697;BME280;4385;48.848;8.924;2022-07-03T05:47:51;97657.41;;;22.34;100.00
8697;BME280;4385;48.848;8.924;2022-07-03T05:50:16;97651.38;;;22.35;100.00
8697;BME280;4385;48.848;8.924;2022-07-03T05:52:42;97653.94;;;22.35;100.00
8697;BME280;4385;48.848;8.924;2022-07-03T05:55:08;97657.34;;;22.35;100.00
8697;BME280;4385;48.848;8.924;2022-07-03T05:57:33;97655.59;;;22.36;100.00
8697;BME280;4385;48.848;8.924;2022-07-03T05:59:59;97657.31;;;22.37;100.00
8697;BME280;4385;48.848;8.924;2022-07-03T06:02:24;97650.47;;;22.36;100.00
8697;BME280;4385;48.848;8.924;2022-07-03T06:04:49;97648.69;;;22.38;100.00
8697;BME280;4385;48.848;8.924;2022-07-03T06:07:15;97650.34;;;22.39;100.00
8697;BME280;4385;48.848;8.924;2022-07-03T06:09:42;97649.50;;;22.40;100.00
8697;BME280;4385;48.848;8.924;2022-07-03T06:12:08;97645.16;;;22.40;100.00
8697;BME280;4385;48.848;8.924;2022-07-03T06:14:34;97645.13;;;22.42;100.00
8697;BME280;4385;48.848;8.924;2022-07-03T06:16:59;97651.03;;;22.44;100.00
8697;BME280;4385;48.848;8.924;2022-07-03T06:19:24;97644.19;;;22.45;100.00
8697;BME280;4385;48.848;8.924;2022-07-03T06:21:50;97648.47;;;22.44;100.00
8697;BME280;4385;48.848;8.924;2022-07-03T06:24:15;97656.97;;;22.46;100.00
8697;BME280;4385;48.848;8.924;2022-07-03T06:26:40;97648.38;;;22.47;100.00
8697;BME280;4385;48.848;8.924;2022-07-03T06:29:05;97658.63;;;22.47;100.00
8697;BME280;4385;48.848;8.924;2022-07-03T06:31:31;97649.22;;;22.48;100.00
8697;BME280;4385;48.848;8.924;2022-07-03T06:33:56;97663.72;;;22.49;100.00
8697;BME280;4385;48.848;8.924;2022-07-03T06:36:22;97657.84;;;22.45;100.00
8697;BME280;4385;48.848;8.924;2022-07-03T06:38:47;97658.91;;;22.39;100.00
8697;BME280;4385;48.848;8.924;2022-07-03T06:41:12;97658.06;;;22.39;100.00
8697;BME280;4385;48.848;8.924;2022-07-03T06:43:38;97656.50;;;22.35;100.00
8697;BME280;4385;48.848;8.924;2022-07-03T06:46:04;97654.72;;;22.37;100.00
8697;BME280;4385;48.848;8.924;2022-07-03T06:48:29;97658.06;;;22.39;100.00
8697;BME280;4385;48.848;8.924;2022-07-03T06:50:54;97664.94;;;22.38;100.00
8697;BME280;4385;48.848;8.924;2022-07-03T06:53:20;97663.19;;;22.39;100.00
8697;BME280;4385;48.848;8.924;2022-07-03T06:55:45;97658.06;;;22.39;100.00
8697;BME280;4385;48.848;8.924;2022-07-03T06:58:10;97668.31;;;22.39;100.00
8697;BME280;4385;48.848;8.924;2022-07-03T07:00:35;97662.44;;;22.37;100.00
8697;BME280;4385;48.848;8.924;2022-07-03T07:03:03;97663.25;;;22.37;100.00
8697;BME280;4385;48.848;8.924;2022-07-03T07:05:29;97664.09;;;22.38;100.00
8697;BME280;4385;48.848;8.924;2022-07-03T07:07:54;97671.00;;;22.36;100.00
8697;BME280;4385;48.848;8.924;2022-07-03T07:10:19;97667.56;;;22.37;100.00
8697;BME280;4385;48.848;8.924;2022-07-03T07:12:45;97674.38;;;22.38;100.00
8697;BME280;4385;48.848;8.924;2022-07-03T07:15:10;97671.81;;;22.38;100.00
8697;BME280;4385;48.848;8.924;2022-07-03T07:17:35;97678.66;;;22.37;100.00
8697;BME280;4385;48.848;8.924;2022-07-03T07:20:01;97670.94;;;22.37;100.00
8697;BME280;4385;48.848;8.924;2022-07-03T07:22:26;97673.47;;;22.39;100.00
8697;BME280;4385;48.848;8.924;2022-07-03T07:24:52;97670.91;;;22.39;100.00
8697;BME280;4385;48.848;8.924;2022-07-03T07:27:18;97670.91;;;22.39;100.00
8697;BME280;4385;48.848;8.924;2022-07-03T07:29:43;97670.03;;;22.40;100.00
8697;BME280;4385;48.848;8.924;2022-07-03T07:32:08;97680.28;;;22.40;100.00
8697;BME280;4385;48.848;8.924;2022-07-03T07:34:34;97675.94;;;22.42;100.00
8697;BME280;4385;48.848;8.924;2022-07-03T07:37:00;97681.91;;;22.42;100.00
8697;BME280;4385;48.848;8.924;2022-07-03T07:39:25;97679.34;;;22.42;100.00
8697;BME280;4385;48.848;8.924;2022-07-03T07:41:51;97682.75;;;22.43;100.00
8697;BME280;4385;48.848;8.924;2022-07-03T07:44:16;97678.44;;;22.43;100.00
8697;BME280;4385;48.848;8.924;2022-07-03T07:46:41;97677.56;;;22.45;100.00
8697;BME280;4385;48.848;8.924;2022-07-03T07:49:07;97678.38;;;22.45;100.00
8697;BME280;4385;48.848;8.924;2022-07-03T07:51:32;97673.25;;;22.45;100.00
8697;BME280;4385;48.848;8.924;2022-07-03T07:53:57;97659.59;;;22.45;100.00
8697;BME280;4385;48.848;8.924;2022-07-03T07:56:24;97662.09;;;22.46;100.00
8697;BME280;4385;48.848;8.924;2022-07-03T07:58:50;97668.06;;;22.47;100.00
8697;BME280;4385;48.848;8.924;2022-07-03T08:01:17;97670.63;;;22.47;100.00
8697;BME280;4385;48.848;8.924;2022-07-03T08:04:01;97669.75;;;22.48;100.00
8697;BME280;4385;48.848;8.924;2022-07-03T08:06:45;97658.63;;;22.47;100.00
8697;BME280;4385;48.848;8.924;2022-07-03T08:09:10;97658.63;;;22.47;100.00
8697;BME280;4385;48.848;8.924;2022-07-03T08:11:35;97662.00;;;22.49;100.00
8697;BME280;4385;48.848;8.924;2022-07-03T08:14:01;97652.53;;;22.50;100.00
8697;BME280;4385;48.848;8.924;2022-07-03T08:16:26;97660.25;;;22.50;100.00
8697;BME280;4385;48.848;8.924;2022-07-03T08:18:52;97657.69;;;22.50;100.00
8697;BME280;4385;48.848;8.924;2022-07-03T08:21:18;97661.09;;;22.50;100.00
8697;BME280;4385;48.848;8.924;2022-07-03T08:23:44;97662.75;;;22.51;100.00
8697;BME280;4385;48.848;8.924;2022-07-03T08:26:09;97659.38;;;22.51;100.00
8697;BME280;4385;48.848;8.924;2022-07-03T08:28:34;97649.91;;;22.51;100.00
8697;BME280;4385;48.848;8.924;2022-07-03T08:30:59;97651.59;;;22.52;100.00
8697;BME280;4385;48.848;8.924;2022-07-03T08:33:25;97651.56;;;22.54;100.00
8697;BME280;4385;48.848;8.924;2022-07-03T08:35:50;97645.56;;;22.53;100.00
8697;BME280;4385;48.848;8.924;2022-07-03T08:38:15;97646.41;;;22.54;100.00
8697;BME280;4385;48.848;8.924;2022-07-03T08:40:43;97645.50;;;22.55;100.00
8697;BME280;4385;48.848;8.924;2022-07-03T08:43:10;97645.47;;;22.57;100.00
8697;BME280;4385;48.848;8.924;2022-07-03T08:45:37;97644.56;;;22.58;100.00
8697;BME280;4385;48.848;8.924;2022-07-03T08:48:04;97642.00;;;22.58;100.00
8697;BME280;4385;48.848;8.924;2022-07-03T08:50:32;97641.16;;;22.59;100.00
8697;BME280;4385;48.848;8.924;2022-07-03T08:52:59;97628.31;;;22.59;100.00
8697;BME280;4385;48.848;8.924;2022-07-03T08:55:24;97632.53;;;22.60;100.00
8697;BME280;4385;48.848;8.924;2022-07-03T08:57:50;97639.34;;;22.61;100.00
8697;BME280;4385;48.848;8.924;2022-07-03T09:00:18;97647.88;;;22.61;100.00
8697;BME280;4385;48.848;8.924;2022-07-03T09:02:45;97647.00;;;22.62;100.00
8697;BME280;4385;48.848;8.924;2022-07-03T09:05:11;97644.47;;;22.61;100.00
8697;BME280;4385;48.848;8.924;2022-07-03T09:07:40;97644.47;;;22.61;100.00
8697;BME280;4385;48.848;8.924;2022-07-03T09:10:08;97643.59;;;22.62;100.00
8697;BME280;4385;48.848;8.924;2022-07-03T09:12:35;97650.41;;;22.63;100.00
8697;BME280;4385;48.848;8.924;2022-07-03T09:15:01;97642.59;;;22.66;100.00
8697;BME280;4385;48.848;8.924;2022-07-03T09:17:28;97640.00;;;22.66;100.00
8697;BME280;4385;48.848;8.924;2022-07-03T09:19:53;97649.38;;;22.67;100.00
8697;BME280;4385;48.848;8.924;2022-07-03T09:22:27;97645.94;;;22.68;100.00
8697;BME280;4385;48.848;8.924;2022-07-03T09:24:54;97635.66;;;22.68;100.00
8697;BME280;4385;48.848;8.924;2022-07-03T09:27:27;97642.47;;;22.69;100.00
8697;BME280;4385;48.848;8.924;2022-07-03T09:30:07;97639.00;;;22.70;100.00
8697;BME280;4385;48.848;8.924;2022-07-03T09:32:41;97642.47;;;22.69;100.00
8697;BME280;4385;48.848;8.924;2022-07-03T09:35:13;97644.91;;;22.72;100.00
8697;BME280;4385;48.848;8.924;2022-07-03T09:37:40;97646.53;;;22.75;100.00
8697;BME280;4385;48.848;8.924;2022-07-03T09:40:06;97642.19;;;22.77;100.00
8697;BME280;4385;48.848;8.924;2022-07-03T09:42:32;97640.47;;;22.77;100.00
8697;BME280;4385;48.848;8.924;2022-07-03T09:44:57;97638.75;;;22.76;100.00
8697;BME280;4385;48.848;8.924;2022-07-03T09:47:24;97635.31;;;22.77;100.00
8697;BME280;4385;48.848;8.924;2022-07-03T09:50:00;97632.75;;;22.77;100.00
8697;BME280;4385;48.848;8.924;2022-07-03T09:52:35;97634.34;;;22.80;100.00
8697;BME280;4385;48.848;8.924;2022-07-03T09:55:12;97628.13;;;22.86;100.00
8697;BME280;4385;48.848;8.924;2022-07-03T09:57:40;97629.00;;;22.86;100.00
8697;BME280;4385;48.848;8.924;2022-07-03T10:00:18;97621.34;;;22.85;100.00
8697;BME280;4385;48.848;8.924;2022-07-03T10:02:55;97633.34;;;22.84;100.00
8697;BME280;4385;48.848;8.924;2022-07-03T10:05:23;97631.69;;;22.83;100.00
8697;BME280;4385;48.848;8.924;2022-07-03T10:07:53;97629.94;;;22.84;100.00
8697;BME280;4385;48.848;8.924;2022-07-03T10:10:20;97629.03;;;22.85;100.00
8697;BME280;4385;48.848;8.924;2022-07-03T10:12:48;97630.66;;;22.87;100.00
8697;BME280;4385;48.848;8.924;2022-07-03T10:15:15;97620.38;;;22.87;100.00
8697;BME280;4385;48.848;8.924;2022-07-03T10:17:41;97618.59;;;22.89;100.00
8697;BME280;4385;48.848;8.924;2022-07-03T10:20:10;97618.53;;;22.91;100.00
8697;BME280;4385;48.848;8.924;2022-07-03T10:22:38;97622.75;;;22.92;100.00
8697;BME280;4385;48.848;8.924;2022-07-03T10:25:07;97611.63;;;22.93;100.00
8697;BME280;4385;48.848;8.924;2022-07-03T10:27:33;97616.69;;;22.95;100.00
8697;BME280;4385;48.848;8.924;2022-07-03T10:30:00;97616.69;;;22.95;100.00
8697;BME280;4385;48.848;8.924;2022-07-03T10:32:27;97619.19;;;22.96;100.00
8697;BME280;4385;48.848;8.924;2022-07-03T10:34:53;97618.28;;;22.97;100.00
8697;BME280;4385;48.848;8.924;2022-07-03T10:37:20;97622.53;;;22.98;100.00
8697;BME280;4385;48.848;8.924;2022-07-03T10:40:00;97619.09;;;22.99;100.00
8697;BME280;4385;48.848;8.924;2022-07-03T10:42:48;97617.38;;;22.98;100.00
8697;BME280;4385;48.848;8.924;2022-07-03T10:45:35;97626.69;;;23.02;100.00
8697;BME280;4385;48.848;8.924;2022-07-03T10:48:01;97614.69;;;23.01;100.00
8697;BME280;4385;48.848;8.924;2022-07-03T10:50:26;97615.50;;;23.03;100.00
8697;BME280;4385;48.848;8.924;2022-07-03T10:52:51;97618.84;;;23.06;100.00
8697;BME280;4385;48.848;8.924;2022-07-03T10:55:18;97621.41;;;23.06;100.00
8697;BME280;4385;48.848;8.924;2022-07-03T10:58:06;97614.53;;;23.06;100.00
8697;BME280;4385;48.848;8.924;2022-07-03T11:00:51;97617.94;;;23.07;100.00
8697;BME280;4385;48.848;8.924;2022-07-03T11:09:11;97607.59;;;23.08;100.00
8697;BME280;4385;48.848;8.924;2022-07-03T11:11:44;97603.31;;;23.09;100.00
8697;BME280;4385;48.848;8.924;2022-07-03T11:14:26;97610.09;;;23.10;100.00
8697;BME280;4385;48.848;8.924;2022-07-03T11:17:17;97610.94;;;23.10;100.00
8697;BME280;4385;48.848;8.924;2022-07-03T11:19:43;97601.50;;;23.11;100.00
8697;BME280;4385;48.848;8.924;2022-07-03T11:22:16;97604.00;;;23.12;100.00
8697;BME280;4385;48.848;8.924;2022-07-03T11:24:44;97596.22;;;23.14;100.00
8697;BME280;4385;48.848;8.924;2022-07-03T11:27:22;97592.78;;;23.15;100.00
8697;BME280;4385;48.848;8.924;2022-07-03T11:29:58;97597.91;;;23.15;100.00
8697;BME280;4385;48.848;8.924;2022-07-03T11:32:49;97586.72;;;23.16;100.00
8697;BME280;4385;48.848;8.924;2022-07-03T11:35:50;97585.00;;;23.16;100.00
8697;BME280;4385;48.848;8.924;2022-07-03T11:38:25;97586.66;;;23.17;100.00
8697;BME280;4385;48.848;8.924;2022-07-03T11:40:52;97582.38;;;23.18;100.00
8697;BME280;4385;48.848;8.924;2022-07-03T11:43:19;97585.75;;;23.19;100.00
8697;BME280;4385;48.848;8.924;2022-07-03T11:45:48;97580.56;;;23.20;100.00
8697;BME280;4385;48.848;8.924;2022-07-03T11:48:19;97575.41;;;23.20;100.00
8697;BME280;4385;48.848;8.924;2022-07-03T11:50:46;97576.19;;;23.22;100.00
8697;BME280;4385;48.848;8.924;2022-07-03T11:53:34;97579.63;;;23.23;100.00
8697;BME280;4385;48.848;8.924;2022-07-03T11:56:07;97571.00;;;23.24;100.00
8697;BME280;4385;48.848;8.924;2022-07-03T11:58:40;97573.50;;;23.25;100.00
8697;BME280;4385;48.848;8.924;2022-07-03T12:01:08;97570.03;;;23.26;100.00
8697;BME280;4385;48.848;8.924;2022-07-03T12:03:33;97566.56;;;23.27;100.00
8697;BME280;4385;48.848;8.924;2022-07-03T12:05:59;97572.47;;;23.29;100.00
8697;BME280;4385;48.848;8.924;2022-07-03T12:08:30;97566.44;;;23.31;100.00
8697;BME280;4385;48.848;8.924;2022-07-03T12:10:57;97567.25;;;23.31;100.00
8697;BME280;4385;48.848;8.924;2022-07-03T12:13:23;97568.97;;;23.32;100.00
8697;BME280;4385;48.848;8.924;2022-07-03T12:15:50;97573.19;;;23.33;100.00
8697;BME280;4385;48.848;8.924;2022-07-03T12:18:16;97556.84;;;23.34;100.00
8697;BME280;4385;48.848;8.924;2022-07-03T12:20:41;97561.19;;;23.34;100.00
8697;BME280;4385;48.848;8.924;2022-07-03T12:23:07;97568.00;;;23.35;100.00
8697;BME280;4385;48.848;8.924;2022-07-03T12:25:40;97557.69;;;23.35;100.00
8697;BME280;4385;48.848;8.924;2022-07-03T12:28:10;97559.31;;;23.37;100.00
8697;BME280;4385;48.848;8.924;2022-07-03T12:30:36;97560.19;;;23.38;100.00
8697;BME280;4385;48.848;8.924;2022-07-03T12:33:03;97549.00;;;23.37;100.00
8697;BME280;4385;48.848;8.924;2022-07-03T12:35:29;97551.56;;;23.39;100.00
8697;BME280;4385;48.848;8.924;2022-07-03T12:37:54;97547.25;;;23.39;100.00
8697;BME280;4385;48.848;8.924;2022-07-03T12:40:20;97550.69;;;23.40;100.00
8697;BME280;4385;48.848;8.924;2022-07-03T12:42:53;97548.84;;;23.42;100.00
8697;BME280;4385;48.848;8.924;2022-07-03T12:45:20;97549.69;;;23.42;100.00
8697;BME280;4385;48.848;8.924;2022-07-03T12:47:57;97547.06;;;23.44;100.00
8697;BME280;4385;48.848;8.924;2022-07-03T12:50:23;97545.28;;;23.46;100.00
8697;BME280;4385;48.848;8.924;2022-07-03T12:52:54;97543.47;;;23.48;100.00
8697;BME280;4385;48.848;8.924;2022-07-03T12:55:27;97538.31;;;23.48;100.00
8697;BME280;4385;48.848;8.924;2022-07-03T12:58:12;97534.88;;;23.49;100.00
8697;BME280;4385;48.848;8.924;2022-07-03T13:00:57;97538.19;;;23.51;100.00
8697;BME280;4385;48.848;8.924;2022-07-03T13:03:30;97538.19;;;23.51;100.00
8697;BME280;4385;48.848;8.924;2022-07-03T13:05:56;97537.38;;;23.51;100.00
8697;BME280;4385;48.848;8.924;2022-07-03T13:08:21;97534.72;;;23.52;100.00
8697;BME280;4385;48.848;8.924;2022-07-03T13:10:57;97527.00;;;23.52;100.00
8697;BME280;4385;48.848;8.924;2022-07-03T13:13:23;97525.19;;;23.54;100.00
8697;BME280;4385;48.848;8.924;2022-07-03T13:15:48;97532.09;;;23.54;100.00
8697;BME280;4385;48.848;8.924;2022-07-03T13:18:13;97530.34;;;23.54;100.00
8697;BME280;4385;48.848;8.924;2022-07-03T13:20:39;97527.38;;;23.64;100.00
8697;BME280;4385;48.848;8.924;2022-07-03T13:23:05;97531.44;;;23.89;100.00
8697;BME280;4385;48.848;8.924;2022-07-03T13:25:32;97532.25;;;24.10;100.00
8697;BME280;4385;48.848;8.924;2022-07-03T13:28:09;97527.53;;;24.20;100.00
8697;BME280;4385;48.848;8.924;2022-07-03T13:30:34;97518.94;;;24.21;100.00
8697;BME280;4385;48.848;8.924;2022-07-03T13:33:01;97526.66;;;24.21;100.00
8697;BME280;4385;48.848;8.924;2022-07-03T13:35:27;97531.09;;;24.18;100.00
8697;BME280;4385;48.848;8.924;2022-07-03T13:37:52;97525.16;;;24.15;100.00
8697;BME280;4385;48.848;8.924;2022-07-03T13:40:18;97526.13;;;24.13;100.00